sensor_id;sensor_type;location;lat;lon;timestamp;P1;durP1;ratioP1;P2;durP2;ratioP2
20713;SDS011;10518;50.742;4.226;2023-04-19T00:00:40;14.80;;;6.53;;
20713;SDS011;10518;50.742;4.226;2023-04-19T00:03:07;13.33;;;7.03;;
20713;SDS011;10518;50.742;4.226;2023-04-19T00:05:33;12.30;;;6.20;;
20713;SDS011;10518;50.742;4.226;2023-04-19T00:07:58;13.23;;;6.17;;
20713;SDS011;10518;50.742;4.226;2023-04-19T00:10:24;15.53;;;7.00;;
20713;SDS011;10518;50.742;4.226;2023-04-19T00:12:50;13.23;;;6.13;;
20713;SDS011;10518;50.742;4.226;2023-04-19T00:15:16;12.97;;;6.10;;
20713;SDS011;10518;50.742;4.226;2023-04-19T00:17:41;15.43;;;6.37;;
20713;SDS011;10518;50.742;4.226;2023-04-19T00:20:07;12.40;;;6.10;;
20713;SDS011;10518;50.742;4.226;2023-04-19T00:22:33;11.80;;;5.63;;
20713;SDS011;10518;50.742;4.226;2023-04-19T00:24:59;14.63;;;6.73;;
20713;SDS011;10518;50.742;4.226;2023-04-19T00:27:25;14.57;;;6.63;;
20713;SDS011;10518;50.742;4.226;2023-04-19T00:29:51;12.73;;;6.87;;
20713;SDS011;10518;50.742;4.226;2023-04-19T00:32:16;13.90;;;6.87;;
20713;SDS011;10518;50.742;4.226;2023-04-19T00:34:42;14.27;;;6.10;;
20713;SDS011;10518;50.742;4.226;2023-04-19T00:37:08;11.37;;;6.13;;
20713;SDS011;10518;50.742;4.226;2023-04-19T00:39:34;12.93;;;6.37;;
20713;SDS011;10518;50.742;4.226;2023-04-19T00:42:00;14.00;;;6.50;;
20713;SDS011;10518;50.742;4.226;2023-04-19T00:44:26;14.77;;;6.83;;
20713;SDS011;10518;50.742;4.226;2023-04-19T00:46:52;12.83;;;6.07;;
20713;SDS011;10518;50.742;4.226;2023-04-19T00:49:19;13.17;;;5.83;;
20713;SDS011;10518;50.742;4.226;2023-04-19T00:51:47;13.47;;;5.30;;
20713;SDS011;10518;50.742;4.226;2023-04-19T00:54:13;14.67;;;6.93;;
20713;SDS011;10518;50.742;4.226;2023-04-19T00:56:39;19.70;;;7.10;;
20713;SDS011;10518;50.742;4.226;2023-04-19T00:59:05;12.43;;;5.90;;
20713;SDS011;10518;50.742;4.226;2023-04-19T01:01:31;11.77;;;6.07;;
20713;SDS011;10518;50.742;4.226;2023-04-19T01:03:58;18.27;;;7.00;;
20713;SDS011;10518;50.742;4.226;2023-04-19T01:06:25;14.13;;;6.50;;
20713;SDS011;10518;50.742;4.226;2023-04-19T01:08:52;16.27;;;6.23;;
20713;SDS011;10518;50.742;4.226;2023-04-19T01:11:18;11.97;;;6.43;;
20713;SDS011;10518;50.742;4.226;2023-04-19T01:13:43;9.87;;;5.37;;
20713;SDS011;10518;50.742;4.226;2023-04-19T01:16:09;14.77;;;6.97;;
20713;SDS011;10518;50.742;4.226;2023-04-19T01:18:35;12.30;;;5.87;;
20713;SDS011;10518;50.742;4.226;2023-04-19T01:21:03;12.07;;;6.03;;
20713;SDS011;10518;50.742;4.226;2023-04-19T01:23:29;13.97;;;5.43;;
20713;SDS011;10518;50.742;4.226;2023-04-19T01:25:54;12.67;;;5.60;;
20713;SDS011;10518;50.742;4.226;2023-04-19T01:28:20;13.40;;;6.63;;
20713;SDS011;10518;50.742;4.226;2023-04-19T01:30:46;13.67;;;6.07;;
20713;SDS011;10518;50.742;4.226;2023-04-19T01:33:14;15.53;;;6.93;;
20713;SDS011;10518;50.742;4.226;2023-04-19T01:35:40;13.37;;;6.63;;
20713;SDS011;10518;50.742;4.226;2023-04-19T01:38:06;9.77;;;5.50;;
20713;SDS011;10518;50.742;4.226;2023-04-19T01:40:32;15.67;;;6.57;;
20713;SDS011;10518;50.742;4.226;2023-04-19T01:42:57;11.33;;;6.07;;
20713;SDS011;10518;50.742;4.226;2023-04-19T01:45:23;12.40;;;6.57;;
20713;SDS011;10518;50.742;4.226;2023-04-19T01:47:49;15.47;;;6.40;;
20713;SDS011;10518;50.742;4.226;2023-04-19T01:50:15;14.50;;;5.73;;
20713;SDS011;10518;50.742;4.226;2023-04-19T01:52:40;14.77;;;6.43;;
20713;SDS011;10518;50.742;4.226;2023-04-19T01:55:06;13.57;;;5.67;;
20713;SDS011;10518;50.742;4.226;2023-04-19T01:57:32;13.33;;;6.83;;
20713;SDS011;10518;50.742;4.226;2023-04-19T01:59:57;13.53;;;6.53;;
20713;SDS011;10518;50.742;4.226;2023-04-19T02:02:23;14.37;;;6.80;;
20713;SDS011;10518;50.742;4.226;2023-04-19T02:04:48;13.13;;;6.57;;
20713;SDS011;10518;50.742;4.226;2023-04-19T02:07:15;11.87;;;6.33;;
20713;SDS011;10518;50.742;4.226;2023-04-19T02:09:41;14.93;;;6.13;;
20713;SDS011;10518;50.742;4.226;2023-04-19T02:12:06;20.50;;;7.00;;
20713;SDS011;10518;50.742;4.226;2023-04-19T02:14:33;11.03;;;6.47;;
20713;SDS011;10518;50.742;4.226;2023-04-19T02:16:59;14.20;;;6.53;;
20713;SDS011;10518;50.742;4.226;2023-04-19T02:19:25;12.97;;;5.90;;
20713;SDS011;10518;50.742;4.226;2023-04-19T02:21:50;11.83;;;6.67;;
20713;SDS011;10518;50.742;4.226;2023-04-19T02:24:17;10.97;;;5.17;;
20713;SDS011;10518;50.742;4.226;2023-04-19T02:26:43;17.13;;;6.37;;
20713;SDS011;10518;50.742;4.226;2023-04-19T02:29:08;13.83;;;6.13;;
20713;SDS011;10518;50.742;4.226;2023-04-19T02:31:34;15.70;;;6.87;;
20713;SDS011;10518;50.742;4.226;2023-04-19T02:34:00;16.50;;;7.50;;
20713;SDS011;10518;50.742;4.226;2023-04-19T02:36:26;18.20;;;6.80;;
20713;SDS011;10518;50.742;4.226;2023-04-19T02:38:51;13.37;;;7.17;;
20713;SDS011;10518;50.742;4.226;2023-04-19T02:41:17;17.70;;;6.70;;
20713;SDS011;10518;50.742;4.226;2023-04-19T02:43:43;12.53;;;5.87;;
20713;SDS011;10518;50.742;4.226;2023-04-19T02:46:08;13.83;;;7.23;;
20713;SDS011;10518;50.742;4.226;2023-04-19T02:48:34;13.73;;;6.50;;
20713;SDS011;10518;50.742;4.226;2023-04-19T02:51:00;14.90;;;6.60;;
20713;SDS011;10518;50.742;4.226;2023-04-19T02:53:25;12.23;;;6.83;;
20713;SDS011;10518;50.742;4.226;2023-04-19T02:55:51;14.70;;;6.97;;
20713;SDS011;10518;50.742;4.226;2023-04-19T02:58:16;14.13;;;7.03;;
20713;SDS011;10518;50.742;4.226;2023-04-19T03:00:42;14.47;;;7.17;;
20713;SDS011;10518;50.742;4.226;2023-04-19T03:03:08;10.83;;;6.07;;
20713;SDS011;10518;50.742;4.226;2023-04-19T03:05:33;14.30;;;6.73;;
20713;SDS011;10518;50.742;4.226;2023-04-19T03:07:59;11.30;;;6.47;;
20713;SDS011;10518;50.742;4.226;2023-04-19T03:10:25;16.50;;;7.20;;
20713;SDS011;10518;50.742;4.226;2023-04-19T03:12:50;14.37;;;6.00;;
20713;SDS011;10518;50.742;4.226;2023-04-19T03:15:16;11.90;;;6.30;;
20713;SDS011;10518;50.742;4.226;2023-04-19T03:17:42;13.33;;;5.93;;
20713;SDS011;10518;50.742;4.226;2023-04-19T03:20:08;12.77;;;7.30;;
20713;SDS011;10518;50.742;4.226;2023-04-19T03:22:35;9.23;;;5.43;;
20713;SDS011;10518;50.742;4.226;2023-04-19T03:25:01;17.30;;;6.63;;
20713;SDS011;10518;50.742;4.226;2023-04-19T03:27:27;12.23;;;6.63;;
20713;SDS011;10518;50.742;4.226;2023-04-19T03:29:54;13.17;;;5.63;;
20713;SDS011;10518;50.742;4.226;2023-04-19T03:32:20;15.30;;;6.60;;
20713;SDS011;10518;50.742;4.226;2023-04-19T03:34:46;10.97;;;6.27;;
20713;SDS011;10518;50.742;4.226;2023-04-19T03:37:11;14.70;;;7.07;;
20713;SDS011;10518;50.742;4.226;2023-04-19T03:39:37;14.60;;;5.70;;
20713;SDS011;10518;50.742;4.226;2023-04-19T03:42:02;13.30;;;6.30;;
20713;SDS011;10518;50.742;4.226;2023-04-19T03:44:30;11.13;;;5.37;;
20713;SDS011;10518;50.742;4.226;2023-04-19T03:46:57;12.17;;;6.20;;
20713;SDS011;10518;50.742;4.226;2023-04-19T03:49:23;9.90;;;5.27;;
20713;SDS011;10518;50.742;4.226;2023-04-19T03:51:48;18.10;;;6.33;;
20713;SDS011;10518;50.742;4.226;2023-04-19T03:54:14;14.30;;;6.33;;
20713;SDS011;10518;50.742;4.226;2023-04-19T03:56:40;14.50;;;6.03;;
20713;SDS011;10518;50.742;4.226;2023-04-19T03:59:06;12.93;;;6.20;;
20713;SDS011;10518;50.742;4.226;2023-04-19T04:01:32;10.27;;;5.57;;
20713;SDS011;10518;50.742;4.226;2023-04-19T04:03:58;11.50;;;6.10;;
20713;SDS011;10518;50.742;4.226;2023-04-19T04:06:23;15.03;;;6.30;;
20713;SDS011;10518;50.742;4.226;2023-04-19T04:08:50;15.63;;;7.33;;
20713;SDS011;10518;50.742;4.226;2023-04-19T04:11:16;15.53;;;6.13;;
20713;SDS011;10518;50.742;4.226;2023-04-19T04:13:42;14.50;;;6.33;;
20713;SDS011;10518;50.742;4.226;2023-04-19T04:16:07;11.23;;;6.53;;
20713;SDS011;10518;50.742;4.226;2023-04-19T04:18:33;14.60;;;6.00;;
20713;SDS011;10518;50.742;4.226;2023-04-19T04:20:58;14.67;;;6.70;;
20713;SDS011;10518;50.742;4.226;2023-04-19T04:23:24;10.67;;;5.80;;
20713;SDS011;10518;50.742;4.226;2023-04-19T04:25:56;18.73;;;6.63;;
20713;SDS011;10518;50.742;4.226;2023-04-19T04:28:24;9.80;;;5.40;;
20713;SDS011;10518;50.742;4.226;2023-04-19T04:30:51;14.57;;;6.80;;
20713;SDS011;10518;50.742;4.226;2023-04-19T04:33:16;15.10;;;6.50;;
20713;SDS011;10518;50.742;4.226;2023-04-19T04:35:42;10.27;;;6.00;;
20713;SDS011;10518;50.742;4.226;2023-04-19T04:38:07;15.47;;;6.67;;
20713;SDS011;10518;50.742;4.226;2023-04-19T04:40:33;11.70;;;5.87;;
20713;SDS011;10518;50.742;4.226;2023-04-19T04:42:59;12.33;;;6.33;;
20713;SDS011;10518;50.742;4.226;2023-04-19T04:45:28;14.30;;;6.93;;
20713;SDS011;10518;50.742;4.226;2023-04-19T04:47:54;12.93;;;6.37;;
20713;SDS011;10518;50.742;4.226;2023-04-19T04:50:19;12.10;;;5.83;;
20713;SDS011;10518;50.742;4.226;2023-04-19T04:52:45;11.83;;;6.30;;
20713;SDS011;10518;50.742;4.226;2023-04-19T04:55:10;12.33;;;6.10;;
20713;SDS011;10518;50.742;4.226;2023-04-19T04:57:36;11.83;;;5.97;;
20713;SDS011;10518;50.742;4.226;2023-04-19T05:00:02;14.10;;;6.30;;
20713;SDS011;10518;50.742;4.226;2023-04-19T05:02:29;9.73;;;5.37;;
20713;SDS011;10518;50.742;4.226;2023-04-19T05:04:55;11.73;;;5.13;;
20713;SDS011;10518;50.742;4.226;2023-04-19T05:07:20;13.57;;;6.33;;
20713;SDS011;10518;50.742;4.226;2023-04-19T05:09:46;13.73;;;6.00;;
20713;SDS011;10518;50.742;4.226;2023-04-19T05:12:11;12.57;;;6.97;;
20713;SDS011;10518;50.742;4.226;2023-04-19T05:14:38;11.77;;;5.63;;
20713;SDS011;10518;50.742;4.226;2023-04-19T05:17:03;14.10;;;6.30;;
20713;SDS011;10518;50.742;4.226;2023-04-19T05:19:29;12.37;;;6.57;;
20713;SDS011;10518;50.742;4.226;2023-04-19T05:21:54;15.90;;;6.23;;
20713;SDS011;10518;50.742;4.226;2023-04-19T05:24:20;12.90;;;6.00;;
20713;SDS011;10518;50.742;4.226;2023-04-19T05:26:45;9.47;;;6.03;;
20713;SDS011;10518;50.742;4.226;2023-04-19T05:29:11;15.43;;;7.30;;
20713;SDS011;10518;50.742;4.226;2023-04-19T05:31:36;11.97;;;5.97;;
20713;SDS011;10518;50.742;4.226;2023-04-19T05:34:02;11.00;;;5.37;;
20713;SDS011;10518;50.742;4.226;2023-04-19T05:36:28;15.77;;;6.47;;
20713;SDS011;10518;50.742;4.226;2023-04-19T05:38:53;15.20;;;6.90;;
20713;SDS011;10518;50.742;4.226;2023-04-19T05:41:19;14.53;;;6.30;;
20713;SDS011;10518;50.742;4.226;2023-04-19T05:43:44;15.73;;;6.10;;
20713;SDS011;10518;50.742;4.226;2023-04-19T05:46:10;19.60;;;6.47;;
20713;SDS011;10518;50.742;4.226;2023-04-19T05:48:35;13.77;;;6.63;;
20713;SDS011;10518;50.742;4.226;2023-04-19T05:51:01;13.63;;;5.97;;
20713;SDS011;10518;50.742;4.226;2023-04-19T05:53:27;14.00;;;7.00;;
20713;SDS011;10518;50.742;4.226;2023-04-19T05:55:53;14.50;;;6.60;;
20713;SDS011;10518;50.742;4.226;2023-04-19T05:58:19;12.50;;;6.50;;
20713;SDS011;10518;50.742;4.226;2023-04-19T06:00:44;12.27;;;6.33;;
20713;SDS011;10518;50.742;4.226;2023-04-19T06:03:10;10.27;;;5.43;;
20713;SDS011;10518;50.742;4.226;2023-04-19T06:05:36;12.77;;;6.18;;
20713;SDS011;10518;50.742;4.226;2023-04-19T06:08:02;11.63;;;5.93;;
20713;SDS011;10518;50.742;4.226;2023-04-19T06:10:28;13.52;;;6.57;;
20713;SDS011;10518;50.742;4.226;2023-04-19T06:12:54;11.13;;;5.93;;
20713;SDS011;10518;50.742;4.226;2023-04-19T06:15:20;12.45;;;6.30;;
20713;SDS011;10518;50.742;4.226;2023-04-19T06:17:46;10.95;;;6.32;;
20713;SDS011;10518;50.742;4.226;2023-04-19T06:20:12;9.80;;;5.68;;
20713;SDS011;10518;50.742;4.226;2023-04-19T06:22:41;13.48;;;6.80;;
20713;SDS011;10518;50.742;4.226;2023-04-19T06:25:09;12.23;;;5.85;;
20713;SDS011;10518;50.742;4.226;2023-04-19T06:27:34;10.48;;;5.50;;
20713;SDS011;10518;50.742;4.226;2023-04-19T06:30:00;10.27;;;6.25;;
20713;SDS011;10518;50.742;4.226;2023-04-19T06:32:26;11.82;;;5.75;;
20713;SDS011;10518;50.742;4.226;2023-04-19T06:34:51;11.85;;;5.35;;
20713;SDS011;10518;50.742;4.226;2023-04-19T06:37:17;12.63;;;5.63;;
20713;SDS011;10518;50.742;4.226;2023-04-19T06:39:42;10.00;;;5.93;;
20713;SDS011;10518;50.742;4.226;2023-04-19T06:42:08;11.57;;;5.75;;
20713;SDS011;10518;50.742;4.226;2023-04-19T06:44:34;12.15;;;6.15;;
20713;SDS011;10518;50.742;4.226;2023-04-19T06:46:59;8.50;;;4.68;;
20713;SDS011;10518;50.742;4.226;2023-04-19T06:49:25;11.48;;;4.90;;
20713;SDS011;10518;50.742;4.226;2023-04-19T06:51:50;8.90;;;4.97;;
20713;SDS011;10518;50.742;4.226;2023-04-19T06:54:17;11.50;;;5.25;;
20713;SDS011;10518;50.742;4.226;2023-04-19T06:59:16;9.93;;;5.00;;
20713;SDS011;10518;50.742;4.226;2023-04-19T07:01:45;11.40;;;5.97;;
20713;SDS011;10518;50.742;4.226;2023-04-19T07:04:11;10.63;;;5.35;;
20713;SDS011;10518;50.742;4.226;2023-04-19T07:06:37;11.02;;;5.68;;
20713;SDS011;10518;50.742;4.226;2023-04-19T07:09:03;9.35;;;5.10;;
20713;SDS011;10518;50.742;4.226;2023-04-19T07:11:30;11.45;;;5.93;;
20713;SDS011;10518;50.742;4.226;2023-04-19T07:13:56;13.07;;;5.35;;
20713;SDS011;10518;50.742;4.226;2023-04-19T07:16:22;10.85;;;5.18;;
20713;SDS011;10518;50.742;4.226;2023-04-19T07:18:47;11.02;;;5.47;;
20713;SDS011;10518;50.742;4.226;2023-04-19T07:21:13;10.75;;;4.88;;
20713;SDS011;10518;50.742;4.226;2023-04-19T07:23:39;9.60;;;4.97;;
20713;SDS011;10518;50.742;4.226;2023-04-19T07:26:05;9.10;;;4.93;;
20713;SDS011;10518;50.742;4.226;2023-04-19T07:28:31;9.68;;;4.95;;
20713;SDS011;10518;50.742;4.226;2023-04-19T07:30:57;11.60;;;5.75;;
20713;SDS011;10518;50.742;4.226;2023-04-19T07:33:23;12.13;;;4.85;;
20713;SDS011;10518;50.742;4.226;2023-04-19T07:35:49;7.97;;;4.65;;
20713;SDS011;10518;50.742;4.226;2023-04-19T07:38:15;9.43;;;4.95;;
20713;SDS011;10518;50.742;4.226;2023-04-19T07:40:41;7.68;;;4.63;;
20713;SDS011;10518;50.742;4.226;2023-04-19T07:43:07;8.48;;;4.40;;
20713;SDS011;10518;50.742;4.226;2023-04-19T07:45:32;8.18;;;4.80;;
20713;SDS011;10518;50.742;4.226;2023-04-19T07:47:58;7.70;;;4.68;;
20713;SDS011;10518;50.742;4.226;2023-04-19T07:50:24;8.20;;;4.40;;
20713;SDS011;10518;50.742;4.226;2023-04-19T07:52:50;7.82;;;4.40;;
20713;SDS011;10518;50.742;4.226;2023-04-19T07:55:16;10.98;;;4.80;;
20713;SDS011;10518;50.742;4.226;2023-04-19T07:57:42;8.00;;;3.95;;
20713;SDS011;10518;50.742;4.226;2023-04-19T08:00:12;9.02;;;3.88;;
20713;SDS011;10518;50.742;4.226;2023-04-19T08:02:46;6.88;;;4.20;;
20713;SDS011;10518;50.742;4.226;2023-04-19T08:05:12;10.38;;;4.63;;
20713;SDS011;10518;50.742;4.226;2023-04-19T08:07:41;9.52;;;4.82;;
20713;SDS011;10518;50.742;4.226;2023-04-19T08:10:07;9.23;;;4.90;;
20713;SDS011;10518;50.742;4.226;2023-04-19T08:12:33;7.50;;;4.03;;
20713;SDS011;10518;50.742;4.226;2023-04-19T08:14:59;8.70;;;4.43;;
20713;SDS011;10518;50.742;4.226;2023-04-19T08:17:25;12.60;;;4.32;;
20713;SDS011;10518;50.742;4.226;2023-04-19T08:19:51;9.52;;;4.45;;
20713;SDS011;10518;50.742;4.226;2023-04-19T08:22:17;7.20;;;4.78;;
20713;SDS011;10518;50.742;4.226;2023-04-19T08:24:44;7.85;;;4.55;;
20713;SDS011;10518;50.742;4.226;2023-04-19T08:27:10;9.73;;;4.40;;
20713;SDS011;10518;50.742;4.226;2023-04-19T08:29:36;7.50;;;4.65;;
20713;SDS011;10518;50.742;4.226;2023-04-19T08:32:03;9.23;;;4.50;;
20713;SDS011;10518;50.742;4.226;2023-04-19T08:34:29;7.28;;;4.00;;
20713;SDS011;10518;50.742;4.226;2023-04-19T08:36:55;11.48;;;4.68;;
20713;SDS011;10518;50.742;4.226;2023-04-19T08:39:21;10.32;;;4.50;;
20713;SDS011;10518;50.742;4.226;2023-04-19T08:41:47;11.27;;;5.15;;
20713;SDS011;10518;50.742;4.226;2023-04-19T08:44:13;8.70;;;4.60;;
20713;SDS011;10518;50.742;4.226;2023-04-19T08:46:41;8.43;;;4.53;;
20713;SDS011;10518;50.742;4.226;2023-04-19T08:49:08;6.55;;;3.88;;
20713;SDS011;10518;50.742;4.226;2023-04-19T08:51:35;8.55;;;3.90;;
20713;SDS011;10518;50.742;4.226;2023-04-19T08:54:04;9.05;;;4.40;;
20713;SDS011;10518;50.742;4.226;2023-04-19T08:56:31;6.38;;;4.13;;
20713;SDS011;10518;50.742;4.226;2023-04-19T08:58:57;6.05;;;3.42;;
20713;SDS011;10518;50.742;4.226;2023-04-19T09:01:22;6.60;;;3.90;;
20713;SDS011;10518;50.742;4.226;2023-04-19T09:03:48;5.53;;;3.70;;
20713;SDS011;10518;50.742;4.226;2023-04-19T09:06:14;8.38;;;4.55;;
20713;SDS011;10518;50.742;4.226;2023-04-19T09:08:40;9.75;;;4.07;;
20713;SDS011;10518;50.742;4.226;2023-04-19T09:11:07;8.88;;;4.70;;
20713;SDS011;10518;50.742;4.226;2023-04-19T09:13:32;9.07;;;4.15;;
20713;SDS011;10518;50.742;4.226;2023-04-19T09:16:02;13.52;;;4.93;;
20713;SDS011;10518;50.742;4.226;2023-04-19T09:18:29;7.10;;;4.30;;
20713;SDS011;10518;50.742;4.226;2023-04-19T09:20:54;6.53;;;3.33;;
20713;SDS011;10518;50.742;4.226;2023-04-19T09:23:23;7.43;;;4.10;;
20713;SDS011;10518;50.742;4.226;2023-04-19T09:25:55;5.72;;;3.70;;
20713;SDS011;10518;50.742;4.226;2023-04-19T09:28:26;7.10;;;3.42;;
20713;SDS011;10518;50.742;4.226;2023-04-19T09:30:52;5.90;;;3.60;;
20713;SDS011;10518;50.742;4.226;2023-04-19T09:33:35;6.93;;;4.35;;
20713;SDS011;10518;50.742;4.226;2023-04-19T09:36:03;7.30;;;3.85;;
20713;SDS011;10518;50.742;4.226;2023-04-19T09:38:30;3.65;;;2.60;;
20713;SDS011;10518;50.742;4.226;2023-04-19T09:41:10;7.22;;;3.55;;
20713;SDS011;10518;50.742;4.226;2023-04-19T09:43:35;4.75;;;3.30;;
20713;SDS011;10518;50.742;4.226;2023-04-19T09:46:01;5.00;;;3.00;;
20713;SDS011;10518;50.742;4.226;2023-04-19T09:48:26;6.20;;;3.45;;
20713;SDS011;10518;50.742;4.226;2023-04-19T09:50:55;5.03;;;3.05;;
20713;SDS011;10518;50.742;4.226;2023-04-19T09:53:22;4.20;;;2.97;;
20713;SDS011;10518;50.742;4.226;2023-04-19T09:55:49;6.25;;;3.28;;
20713;SDS011;10518;50.742;4.226;2023-04-19T09:58:15;4.55;;;2.63;;
20713;SDS011;10518;50.742;4.226;2023-04-19T10:00:42;5.78;;;3.33;;
20713;SDS011;10518;50.742;4.226;2023-04-19T10:03:09;5.63;;;3.40;;
20713;SDS011;10518;50.742;4.226;2023-04-19T10:05:37;5.20;;;3.28;;
20713;SDS011;10518;50.742;4.226;2023-04-19T10:08:06;5.13;;;3.33;;
20713;SDS011;10518;50.742;4.226;2023-04-19T10:10:32;7.57;;;3.35;;
20713;SDS011;10518;50.742;4.226;2023-04-19T10:12:58;4.57;;;3.22;;
20713;SDS011;10518;50.742;4.226;2023-04-19T10:15:29;6.38;;;3.22;;
20713;SDS011;10518;50.742;4.226;2023-04-19T10:17:55;6.65;;;3.17;;
20713;SDS011;10518;50.742;4.226;2023-04-19T10:20:38;6.40;;;3.90;;
20713;SDS011;10518;50.742;4.226;2023-04-19T10:23:13;9.77;;;4.38;;
20713;SDS011;10518;50.742;4.226;2023-04-19T10:25:39;7.45;;;4.20;;
20713;SDS011;10518;50.742;4.226;2023-04-19T10:28:09;7.22;;;4.22;;
20713;SDS011;10518;50.742;4.226;2023-04-19T10:30:35;8.07;;;4.70;;
20713;SDS011;10518;50.742;4.226;2023-04-19T10:33:00;7.95;;;4.88;;
20713;SDS011;10518;50.742;4.226;2023-04-19T10:35:36;9.85;;;4.60;;
20713;SDS011;10518;50.742;4.226;2023-04-19T10:43:31;27.85;;;10.27;;
20713;SDS011;10518;50.742;4.226;2023-04-19T10:48:48;5.03;;;3.08;;
20713;SDS011;10518;50.742;4.226;2023-04-19T10:51:37;6.28;;;3.75;;
20713;SDS011;10518;50.742;4.226;2023-04-19T10:54:04;7.57;;;4.60;;
20713;SDS011;10518;50.742;4.226;2023-04-19T11:01:42;4.95;;;3.83;;
20713;SDS011;10518;50.742;4.226;2023-04-19T11:04:12;7.55;;;4.13;;
20713;SDS011;10518;50.742;4.226;2023-04-19T11:06:55;9.13;;;4.22;;
20713;SDS011;10518;50.742;4.226;2023-04-19T11:09:24;7.43;;;4.72;;
20713;SDS011;10518;50.742;4.226;2023-04-19T11:11:52;7.20;;;3.60;;
20713;SDS011;10518;50.742;4.226;2023-04-19T11:14:21;6.82;;;4.07;;
20713;SDS011;10518;50.742;4.226;2023-04-19T11:16:48;6.20;;;3.58;;
20713;SDS011;10518;50.742;4.226;2023-04-19T11:19:16;5.75;;;3.47;;
20713;SDS011;10518;50.742;4.226;2023-04-19T11:21:45;6.57;;;3.88;;
20713;SDS011;10518;50.742;4.226;2023-04-19T11:24:12;5.93;;;3.70;;
20713;SDS011;10518;50.742;4.226;2023-04-19T11:26:41;5.10;;;3.40;;
20713;SDS011;10518;50.742;4.226;2023-04-19T11:29:08;6.95;;;3.17;;
20713;SDS011;10518;50.742;4.226;2023-04-19T11:31:34;14.05;;;3.60;;
20713;SDS011;10518;50.742;4.226;2023-04-19T11:34:01;5.90;;;3.10;;
20713;SDS011;10518;50.742;4.226;2023-04-19T11:36:26;4.93;;;3.00;;
20713;SDS011;10518;50.742;4.226;2023-04-19T11:38:52;5.22;;;3.35;;
20713;SDS011;10518;50.742;4.226;2023-04-19T11:41:18;4.43;;;2.88;;
20713;SDS011;10518;50.742;4.226;2023-04-19T11:43:44;4.72;;;3.08;;
20713;SDS011;10518;50.742;4.226;2023-04-19T11:46:11;9.60;;;3.55;;
20713;SDS011;10518;50.742;4.226;2023-04-19T11:48:58;6.07;;;4.05;;
20713;SDS011;10518;50.742;4.226;2023-04-19T11:51:23;7.90;;;3.78;;
20713;SDS011;10518;50.742;4.226;2023-04-19T11:53:50;6.30;;;3.72;;
20713;SDS011;10518;50.742;4.226;2023-04-19T11:56:16;5.88;;;3.55;;
20713;SDS011;10518;50.742;4.226;2023-04-19T11:58:45;11.32;;;4.20;;
20713;SDS011;10518;50.742;4.226;2023-04-19T12:01:15;5.57;;;3.55;;
20713;SDS011;10518;50.742;4.226;2023-04-19T12:03:46;6.32;;;3.53;;
20713;SDS011;10518;50.742;4.226;2023-04-19T12:06:17;6.97;;;3.00;;
20713;SDS011;10518;50.742;4.226;2023-04-19T12:08:48;5.25;;;3.40;;
20713;SDS011;10518;50.742;4.226;2023-04-19T12:11:15;7.80;;;3.65;;
20713;SDS011;10518;50.742;4.226;2023-04-19T12:13:55;6.93;;;3.53;;
20713;SDS011;10518;50.742;4.226;2023-04-19T12:16:38;5.13;;;3.50;;
20713;SDS011;10518;50.742;4.226;2023-04-19T12:19:11;5.97;;;3.50;;
20713;SDS011;10518;50.742;4.226;2023-04-19T12:21:38;5.75;;;3.42;;
20713;SDS011;10518;50.742;4.226;2023-04-19T12:24:04;9.20;;;4.07;;
20713;SDS011;10518;50.742;4.226;2023-04-19T12:26:30;11.65;;;3.75;;
20713;SDS011;10518;50.742;4.226;2023-04-19T12:28:56;7.70;;;3.35;;
20713;SDS011;10518;50.742;4.226;2023-04-19T12:31:23;6.20;;;3.00;;
20713;SDS011;10518;50.742;4.226;2023-04-19T12:33:49;6.30;;;3.42;;
20713;SDS011;10518;50.742;4.226;2023-04-19T12:36:15;4.78;;;3.33;;
20713;SDS011;10518;50.742;4.226;2023-04-19T12:38:41;9.00;;;4.13;;
20713;SDS011;10518;50.742;4.226;2023-04-19T12:41:06;4.80;;;3.38;;
20713;SDS011;10518;50.742;4.226;2023-04-19T12:43:32;4.95;;;3.25;;
20713;SDS011;10518;50.742;4.226;2023-04-19T12:45:58;6.20;;;3.40;;
20713;SDS011;10518;50.742;4.226;2023-04-19T12:48:24;6.70;;;3.83;;
20713;SDS011;10518;50.742;4.226;2023-04-19T12:50:50;5.35;;;3.30;;
20713;SDS011;10518;50.742;4.226;2023-04-19T12:53:16;5.88;;;3.58;;
20713;SDS011;10518;50.742;4.226;2023-04-19T12:55:42;6.32;;;3.50;;
20713;SDS011;10518;50.742;4.226;2023-04-19T12:58:12;6.60;;;2.97;;
20713;SDS011;10518;50.742;4.226;2023-04-19T13:00:38;6.28;;;3.30;;
20713;SDS011;10518;50.742;4.226;2023-04-19T13:03:03;5.50;;;3.17;;
20713;SDS011;10518;50.742;4.226;2023-04-19T13:05:29;5.57;;;2.83;;
20713;SDS011;10518;50.742;4.226;2023-04-19T13:07:54;4.68;;;2.75;;
20713;SDS011;10518;50.742;4.226;2023-04-19T13:10:20;4.93;;;2.72;;
20713;SDS011;10518;50.742;4.226;2023-04-19T13:12:46;5.80;;;3.47;;
20713;SDS011;10518;50.742;4.226;2023-04-19T13:15:11;6.18;;;3.08;;
20713;SDS011;10518;50.742;4.226;2023-04-19T13:17:37;6.70;;;2.83;;
20713;SDS011;10518;50.742;4.226;2023-04-19T13:20:03;5.35;;;2.97;;
20713;SDS011;10518;50.742;4.226;2023-04-19T13:22:30;7.10;;;3.17;;
20713;SDS011;10518;50.742;4.226;2023-04-19T13:24:56;5.47;;;2.88;;
20713;SDS011;10518;50.742;4.226;2023-04-19T13:27:22;5.47;;;3.00;;
20713;SDS011;10518;50.742;4.226;2023-04-19T13:29:48;6.13;;;2.85;;
20713;SDS011;10518;50.742;4.226;2023-04-19T13:32:14;4.78;;;3.05;;
20713;SDS011;10518;50.742;4.226;2023-04-19T13:34:39;5.93;;;3.08;;
20713;SDS011;10518;50.742;4.226;2023-04-19T13:37:05;4.43;;;2.80;;
20713;SDS011;10518;50.742;4.226;2023-04-19T13:39:31;5.90;;;3.00;;
20713;SDS011;10518;50.742;4.226;2023-04-19T13:41:57;4.70;;;2.70;;
20713;SDS011;10518;50.742;4.226;2023-04-19T13:44:23;4.53;;;2.50;;
20713;SDS011;10518;50.742;4.226;2023-04-19T13:46:49;10.05;;;3.33;;
20713;SDS011;10518;50.742;4.226;2023-04-19T13:49:16;4.97;;;2.83;;
20713;SDS011;10518;50.742;4.226;2023-04-19T13:51:42;7.57;;;2.58;;
20713;SDS011;10518;50.742;4.226;2023-04-19T13:54:07;4.30;;;2.78;;
20713;SDS011;10518;50.742;4.226;2023-04-19T13:56:33;5.38;;;2.72;;
20713;SDS011;10518;50.742;4.226;2023-04-19T13:58:59;5.47;;;2.40;;
20713;SDS011;10518;50.742;4.226;2023-04-19T14:01:24;4.80;;;2.33;;
20713;SDS011;10518;50.742;4.226;2023-04-19T14:03:50;3.67;;;2.47;;
20713;SDS011;10518;50.742;4.226;2023-04-19T14:06:15;2.90;;;2.03;;
20713;SDS011;10518;50.742;4.226;2023-04-19T14:08:41;4.20;;;2.20;;
20713;SDS011;10518;50.742;4.226;2023-04-19T14:11:07;4.45;;;2.08;;
20713;SDS011;10518;50.742;4.226;2023-04-19T14:13:32;6.60;;;3.03;;
20713;SDS011;10518;50.742;4.226;2023-04-19T14:15:58;4.38;;;2.45;;
20713;SDS011;10518;50.742;4.226;2023-04-19T14:18:24;3.08;;;2.15;;
20713;SDS011;10518;50.742;4.226;2023-04-19T14:20:49;3.72;;;2.85;;
20713;SDS011;10518;50.742;4.226;2023-04-19T14:23:15;6.40;;;2.75;;
20713;SDS011;10518;50.742;4.226;2023-04-19T14:25:41;5.35;;;2.47;;
20713;SDS011;10518;50.742;4.226;2023-04-19T14:28:06;5.13;;;2.47;;
20713;SDS011;10518;50.742;4.226;2023-04-19T14:30:32;4.60;;;2.55;;
20713;SDS011;10518;50.742;4.226;2023-04-19T14:32:58;4.13;;;2.10;;
20713;SDS011;10518;50.742;4.226;2023-04-19T14:35:24;5.85;;;2.10;;
20713;SDS011;10518;50.742;4.226;2023-04-19T14:37:49;5.22;;;2.50;;
20713;SDS011;10518;50.742;4.226;2023-04-19T14:40:15;2.88;;;1.80;;
20713;SDS011;10518;50.742;4.226;2023-04-19T14:42:41;3.72;;;2.28;;
20713;SDS011;10518;50.742;4.226;2023-04-19T14:45:07;6.25;;;1.70;;
20713;SDS011;10518;50.742;4.226;2023-04-19T14:47:33;2.22;;;1.60;;
20713;SDS011;10518;50.742;4.226;2023-04-19T14:49:59;4.55;;;1.80;;
20713;SDS011;10518;50.742;4.226;2023-04-19T14:52:24;4.47;;;1.60;;